sensor_id;sensor_type;location;lat;lon;timestamp;temperature;humidity
23311;DHT22;11828;51.508;18.118;2023-04-20T00:00:32;25.90;32.10
23311;DHT22;11828;51.508;18.118;2023-04-20T00:03:15;25.90;32.00
23311;DHT22;11828;51.508;18.118;2023-04-20T00:05:46;25.80;32.00
23311;DHT22;11828;51.508;18.118;2023-04-20T00:08:15;25.80;32.10
23311;DHT22;11828;51.508;18.118;2023-04-20T00:10:43;25.80;32.30
23311;DHT22;11828;51.508;18.118;2023-04-20T00:13:10;25.80;32.30
23311;DHT22;11828;51.508;18.118;2023-04-20T00:15:36;25.80;32.30
23311;DHT22;11828;51.508;18.118;2023-04-20T00:18:03;25.80;32.20
23311;DHT22;11828;51.508;18.118;2023-04-20T00:20:28;25.90;32.20
23311;DHT22;11828;51.508;18.118;2023-04-20T00:22:55;25.90;32.30
23311;DHT22;11828;51.508;18.118;2023-04-20T00:25:21;25.80;32.20
23311;DHT22;11828;51.508;18.118;2023-04-20T00:27:47;25.90;32.30
23311;DHT22;11828;51.508;18.118;2023-04-20T00:30:13;25.90;32.30
23311;DHT22;11828;51.508;18.118;2023-04-20T00:32:40;25.90;32.30
23311;DHT22;11828;51.508;18.118;2023-04-20T00:35:06;26.10;32.30
23311;DHT22;11828;51.508;18.118;2023-04-20T00:37:33;26.00;32.20
23311;DHT22;11828;51.508;18.118;2023-04-20T00:39:59;26.10;32.20
23311;DHT22;11828;51.508;18.118;2023-04-20T00:42:25;26.00;32.30
23311;DHT22;11828;51.508;18.118;2023-04-20T00:44:51;26.00;32.40
23311;DHT22;11828;51.508;18.118;2023-04-20T00:47:17;26.00;32.30
23311;DHT22;11828;51.508;18.118;2023-04-20T00:49:43;26.00;32.30
23311;DHT22;11828;51.508;18.118;2023-04-20T00:52:10;26.00;32.40
23311;DHT22;11828;51.508;18.118;2023-04-20T00:54:36;26.00;32.30
23311;DHT22;11828;51.508;18.118;2023-04-20T00:57:03;26.00;32.30
23311;DHT22;11828;51.508;18.118;2023-04-20T00:59:29;26.00;32.40
23311;DHT22;11828;51.508;18.118;2023-04-20T01:01:56;26.00;32.40
23311;DHT22;11828;51.508;18.118;2023-04-20T01:04:22;26.00;32.30
23311;DHT22;11828;51.508;18.118;2023-04-20T01:06:49;25.90;32.30
23311;DHT22;11828;51.508;18.118;2023-04-20T01:09:15;25.90;32.40
23311;DHT22;11828;51.508;18.118;2023-04-20T01:11:41;25.80;32.40
23311;DHT22;11828;51.508;18.118;2023-04-20T01:14:07;25.80;32.40
23311;DHT22;11828;51.508;18.118;2023-04-20T01:16:33;25.80;32.50
23311;DHT22;11828;51.508;18.118;2023-04-20T01:19:01;25.80;32.50
23311;DHT22;11828;51.508;18.118;2023-04-20T01:21:27;25.90;32.60
23311;DHT22;11828;51.508;18.118;2023-04-20T01:23:54;25.90;32.60
23311;DHT22;11828;51.508;18.118;2023-04-20T01:26:22;25.90;32.60
23311;DHT22;11828;51.508;18.118;2023-04-20T01:28:49;25.90;32.60
23311;DHT22;11828;51.508;18.118;2023-04-20T01:31:15;26.00;32.50
23311;DHT22;11828;51.508;18.118;2023-04-20T01:33:41;26.00;33.10
23311;DHT22;11828;51.508;18.118;2023-04-20T01:36:08;26.10;32.40
23311;DHT22;11828;51.508;18.118;2023-04-20T01:38:35;26.00;32.40
23311;DHT22;11828;51.508;18.118;2023-04-20T01:41:03;26.00;32.40
23311;DHT22;11828;51.508;18.118;2023-04-20T01:43:31;25.90;32.60
23311;DHT22;11828;51.508;18.118;2023-04-20T01:45:58;25.90;32.70
23311;DHT22;11828;51.508;18.118;2023-04-20T01:48:25;26.00;32.70
23311;DHT22;11828;51.508;18.118;2023-04-20T01:50:52;26.00;32.70
23311;DHT22;11828;51.508;18.118;2023-04-20T01:53:18;26.00;32.60
23311;DHT22;11828;51.508;18.118;2023-04-20T01:55:44;26.00;32.70
23311;DHT22;11828;51.508;18.118;2023-04-20T01:58:11;26.10;32.70
23311;DHT22;11828;51.508;18.118;2023-04-20T02:00:37;26.10;32.60
23311;DHT22;11828;51.508;18.118;2023-04-20T02:03:03;26.10;32.60
23311;DHT22;11828;51.508;18.118;2023-04-20T02:05:29;26.10;32.70
23311;DHT22;11828;51.508;18.118;2023-04-20T02:07:55;26.10;32.70
23311;DHT22;11828;51.508;18.118;2023-04-20T02:10:21;26.20;32.60
23311;DHT22;11828;51.508;18.118;2023-04-20T02:12:48;26.20;32.60
23311;DHT22;11828;51.508;18.118;2023-04-20T02:15:14;26.20;32.50
23311;DHT22;11828;51.508;18.118;2023-04-20T02:17:41;26.20;32.50
23311;DHT22;11828;51.508;18.118;2023-04-20T02:20:08;26.30;32.60
23311;DHT22;11828;51.508;18.118;2023-04-20T02:22:36;26.20;32.50
23311;DHT22;11828;51.508;18.118;2023-04-20T02:25:03;26.20;32.60
23311;DHT22;11828;51.508;18.118;2023-04-20T02:27:31;26.20;32.60
23311;DHT22;11828;51.508;18.118;2023-04-20T02:29:58;26.20;32.60
23311;DHT22;11828;51.508;18.118;2023-04-20T02:32:25;26.20;32.50
23311;DHT22;11828;51.508;18.118;2023-04-20T02:34:51;26.20;32.60
23311;DHT22;11828;51.508;18.118;2023-04-20T02:37:17;26.20;32.60
23311;DHT22;11828;51.508;18.118;2023-04-20T02:39:43;26.20;32.60
23311;DHT22;11828;51.508;18.118;2023-04-20T02:42:10;26.20;32.80
23311;DHT22;11828;51.508;18.118;2023-04-20T02:44:36;26.10;32.80
23311;DHT22;11828;51.508;18.118;2023-04-20T02:47:02;26.10;32.90
23311;DHT22;11828;51.508;18.118;2023-04-20T02:49:28;26.10;33.00
23311;DHT22;11828;51.508;18.118;2023-04-20T02:51:54;26.00;33.20
23311;DHT22;11828;51.508;18.118;2023-04-20T02:54:20;25.90;33.20
23311;DHT22;11828;51.508;18.118;2023-04-20T02:56:46;25.90;33.30
23311;DHT22;11828;51.508;18.118;2023-04-20T02:59:12;25.90;33.30
23311;DHT22;11828;51.508;18.118;2023-04-20T03:01:39;25.80;33.30
23311;DHT22;11828;51.508;18.118;2023-04-20T03:04:05;25.80;33.40
23311;DHT22;11828;51.508;18.118;2023-04-20T03:06:31;25.80;33.60
23311;DHT22;11828;51.508;18.118;2023-04-20T03:08:57;25.80;33.50
23311;DHT22;11828;51.508;18.118;2023-04-20T03:11:24;25.80;33.40
23311;DHT22;11828;51.508;18.118;2023-04-20T03:13:49;25.90;33.60
23311;DHT22;11828;51.508;18.118;2023-04-20T03:16:16;25.80;33.60
23311;DHT22;11828;51.508;18.118;2023-04-20T03:18:42;25.90;33.60
23311;DHT22;11828;51.508;18.118;2023-04-20T03:21:08;25.90;33.50
23311;DHT22;11828;51.508;18.118;2023-04-20T03:23:34;25.90;33.40
23311;DHT22;11828;51.508;18.118;2023-04-20T03:26:01;25.90;33.40
23311;DHT22;11828;51.508;18.118;2023-04-20T03:28:27;25.90;33.50
23311;DHT22;11828;51.508;18.118;2023-04-20T03:30:53;25.90;33.60
23311;DHT22;11828;51.508;18.118;2023-04-20T03:33:19;25.90;33.70
23311;DHT22;11828;51.508;18.118;2023-04-20T03:35:45;25.90;33.70
23311;DHT22;11828;51.508;18.118;2023-04-20T03:38:11;26.00;33.70
23311;DHT22;11828;51.508;18.118;2023-04-20T03:40:38;26.00;33.60
23311;DHT22;11828;51.508;18.118;2023-04-20T03:43:04;26.00;33.60
23311;DHT22;11828;51.508;18.118;2023-04-20T03:45:30;26.00;33.60
23311;DHT22;11828;51.508;18.118;2023-04-20T03:47:56;26.00;33.70
23311;DHT22;11828;51.508;18.118;2023-04-20T03:50:22;26.00;33.80
23311;DHT22;11828;51.508;18.118;2023-04-20T03:52:48;25.90;33.80
23311;DHT22;11828;51.508;18.118;2023-04-20T03:55:15;26.00;34.00
23311;DHT22;11828;51.508;18.118;2023-04-20T03:57:41;26.00;34.00
23311;DHT22;11828;51.508;18.118;2023-04-20T04:00:08;26.00;34.00
23311;DHT22;11828;51.508;18.118;2023-04-20T04:02:35;26.00;33.90
23311;DHT22;11828;51.508;18.118;2023-04-20T04:05:01;26.00;34.00
23311;DHT22;11828;51.508;18.118;2023-04-20T04:07:27;25.90;34.00
23311;DHT22;11828;51.508;18.118;2023-04-20T04:09:54;26.00;34.00
23311;DHT22;11828;51.508;18.118;2023-04-20T04:12:20;26.00;34.10
23311;DHT22;11828;51.508;18.118;2023-04-20T04:14:46;25.90;34.20
23311;DHT22;11828;51.508;18.118;2023-04-20T04:17:13;25.80;35.00
23311;DHT22;11828;51.508;18.118;2023-04-20T04:19:39;25.80;34.40
23311;DHT22;11828;51.508;18.118;2023-04-20T04:22:07;25.80;34.60
23311;DHT22;11828;51.508;18.118;2023-04-20T04:24:33;25.80;34.60
23311;DHT22;11828;51.508;18.118;2023-04-20T04:27:00;25.80;34.80
23311;DHT22;11828;51.508;18.118;2023-04-20T04:29:27;25.80;34.70
23311;DHT22;11828;51.508;18.118;2023-04-20T04:31:53;25.80;34.50
23311;DHT22;11828;51.508;18.118;2023-04-20T04:34:19;25.90;34.50
23311;DHT22;11828;51.508;18.118;2023-04-20T04:36:45;26.00;34.40
23311;DHT22;11828;51.508;18.118;2023-04-20T04:39:12;26.00;34.40
23311;DHT22;11828;51.508;18.118;2023-04-20T04:41:38;26.10;34.30
23311;DHT22;11828;51.508;18.118;2023-04-20T04:44:04;26.10;34.30
23311;DHT22;11828;51.508;18.118;2023-04-20T04:46:30;26.10;34.30
23311;DHT22;11828;51.508;18.118;2023-04-20T04:48:58;26.20;34.40
23311;DHT22;11828;51.508;18.118;2023-04-20T04:51:26;26.10;34.30
23311;DHT22;11828;51.508;18.118;2023-04-20T04:53:52;26.20;34.30
23311;DHT22;11828;51.508;18.118;2023-04-20T04:56:18;26.20;34.30
23311;DHT22;11828;51.508;18.118;2023-04-20T04:58:45;26.20;34.40
23311;DHT22;11828;51.508;18.118;2023-04-20T05:01:12;26.10;34.40
23311;DHT22;11828;51.508;18.118;2023-04-20T05:03:39;26.20;34.40
23311;DHT22;11828;51.508;18.118;2023-04-20T05:06:05;26.10;34.40
23311;DHT22;11828;51.508;18.118;2023-04-20T05:08:33;26.10;34.40
23311;DHT22;11828;51.508;18.118;2023-04-20T05:10:59;26.10;34.50
23311;DHT22;11828;51.508;18.118;2023-04-20T05:13:25;26.10;34.50
23311;DHT22;11828;51.508;18.118;2023-04-20T05:15:51;26.10;34.50
23311;DHT22;11828;51.508;18.118;2023-04-20T05:18:18;26.10;34.50
23311;DHT22;11828;51.508;18.118;2023-04-20T05:20:44;26.10;34.50
23311;DHT22;11828;51.508;18.118;2023-04-20T05:23:10;26.20;34.50
23311;DHT22;11828;51.508;18.118;2023-04-20T05:25:36;26.20;34.40
23311;DHT22;11828;51.508;18.118;2023-04-20T05:28:03;26.20;34.40
23311;DHT22;11828;51.508;18.118;2023-04-20T05:30:29;26.20;34.40
23311;DHT22;11828;51.508;18.118;2023-04-20T05:32:56;26.20;34.50
23311;DHT22;11828;51.508;18.118;2023-04-20T05:35:22;26.40;34.50
23311;DHT22;11828;51.508;18.118;2023-04-20T05:37:48;26.40;34.40
23311;DHT22;11828;51.508;18.118;2023-04-20T05:40:14;26.50;34.30
23311;DHT22;11828;51.508;18.118;2023-04-20T05:42:40;26.60;34.30
23311;DHT22;11828;51.508;18.118;2023-04-20T05:45:07;26.60;34.80
23311;DHT22;11828;51.508;18.118;2023-04-20T05:47:34;26.70;34.20
23311;DHT22;11828;51.508;18.118;2023-04-20T05:50:00;26.70;34.80
23311;DHT22;11828;51.508;18.118;2023-04-20T05:52:27;26.70;34.00
23311;DHT22;11828;51.508;18.118;2023-04-20T05:54:53;26.70;33.90
23311;DHT22;11828;51.508;18.118;2023-04-20T05:57:19;26.70;33.90
23311;DHT22;11828;51.508;18.118;2023-04-20T05:59:46;26.80;34.00
23311;DHT22;11828;51.508;18.118;2023-04-20T06:02:12;26.80;33.90
23311;DHT22;11828;51.508;18.118;2023-04-20T06:04:38;26.90;33.90
23311;DHT22;11828;51.508;18.118;2023-04-20T06:07:05;26.90;33.80
23311;DHT22;11828;51.508;18.118;2023-04-20T06:09:30;27.00;33.90
23311;DHT22;11828;51.508;18.118;2023-04-20T06:11:57;27.00;33.90
23311;DHT22;11828;51.508;18.118;2023-04-20T06:14:23;27.20;33.80
23311;DHT22;11828;51.508;18.118;2023-04-20T06:16:49;27.30;33.60
23311;DHT22;11828;51.508;18.118;2023-04-20T06:19:15;27.40;33.30
23311;DHT22;11828;51.508;18.118;2023-04-20T06:21:41;27.60;33.10
23311;DHT22;11828;51.508;18.118;2023-04-20T06:24:07;27.80;32.80
23311;DHT22;11828;51.508;18.118;2023-04-20T06:26:34;27.90;32.60
23311;DHT22;11828;51.508;18.118;2023-04-20T06:29:00;28.10;32.70
23311;DHT22;11828;51.508;18.118;2023-04-20T06:31:26;28.40;32.80
23311;DHT22;11828;51.508;18.118;2023-04-20T06:33:52;28.90;32.60
23311;DHT22;11828;51.508;18.118;2023-04-20T06:36:19;29.40;31.90
23311;DHT22;11828;51.508;18.118;2023-04-20T06:38:45;29.80;31.10
23311;DHT22;11828;51.508;18.118;2023-04-20T06:41:11;30.00;30.30
23311;DHT22;11828;51.508;18.118;2023-04-20T06:43:37;30.10;30.00
23311;DHT22;11828;51.508;18.118;2023-04-20T06:46:04;30.50;29.80
23311;DHT22;11828;51.508;18.118;2023-04-20T06:48:30;30.80;29.90
23311;DHT22;11828;51.508;18.118;2023-04-20T06:50:56;31.30;29.50
23311;DHT22;11828;51.508;18.118;2023-04-20T06:53:23;32.00;29.30
23311;DHT22;11828;51.508;18.118;2023-04-20T06:55:49;32.80;29.00
23311;DHT22;11828;51.508;18.118;2023-04-20T06:58:15;33.60;28.40
23311;DHT22;11828;51.508;18.118;2023-04-20T07:00:42;34.40;27.90
23311;DHT22;11828;51.508;18.118;2023-04-20T07:03:08;35.20;27.10
23311;DHT22;11828;51.508;18.118;2023-04-20T07:05:35;35.90;26.40
23311;DHT22;11828;51.508;18.118;2023-04-20T07:08:01;36.50;25.60
23311;DHT22;11828;51.508;18.118;2023-04-20T07:10:27;36.80;25.00
23311;DHT22;11828;51.508;18.118;2023-04-20T07:12:53;37.10;24.50
23311;DHT22;11828;51.508;18.118;2023-04-20T07:15:20;37.30;24.30
23311;DHT22;11828;51.508;18.118;2023-04-20T07:17:47;37.70;24.00
23311;DHT22;11828;51.508;18.118;2023-04-20T07:20:13;38.10;23.70
23311;DHT22;11828;51.508;18.118;2023-04-20T07:22:40;38.90;23.50
23311;DHT22;11828;51.508;18.118;2023-04-20T07:25:08;39.60;22.90
23311;DHT22;11828;51.508;18.118;2023-04-20T07:27:36;40.30;22.50
23311;DHT22;11828;51.508;18.118;2023-04-20T07:30:04;40.90;22.00
23311;DHT22;11828;51.508;18.118;2023-04-20T07:32:32;41.50;21.60
23311;DHT22;11828;51.508;18.118;2023-04-20T07:34:59;42.00;21.00
23311;DHT22;11828;51.508;18.118;2023-04-20T07:37:25;42.40;20.90
23311;DHT22;11828;51.508;18.118;2023-04-20T07:39:52;42.70;20.70
23311;DHT22;11828;51.508;18.118;2023-04-20T07:42:19;43.00;20.60
23311;DHT22;11828;51.508;18.118;2023-04-20T07:44:46;43.20;20.20
23311;DHT22;11828;51.508;18.118;2023-04-20T07:47:12;43.40;19.80
23311;DHT22;11828;51.508;18.118;2023-04-20T07:49:40;43.50;19.80
23311;DHT22;11828;51.508;18.118;2023-04-20T07:52:06;43.60;19.70
23311;DHT22;11828;51.508;18.118;2023-04-20T07:54:33;43.80;19.70
23311;DHT22;11828;51.508;18.118;2023-04-20T07:56:59;43.70;19.30
23311;DHT22;11828;51.508;18.118;2023-04-20T07:59:26;43.40;19.10
23311;DHT22;11828;51.508;18.118;2023-04-20T08:01:56;43.20;19.10
23311;DHT22;11828;51.508;18.118;2023-04-20T08:04:24;42.80;19.10
23311;DHT22;11828;51.508;18.118;2023-04-20T08:06:50;42.10;19.40
23311;DHT22;11828;51.508;18.118;2023-04-20T08:09:17;41.30;19.70
23311;DHT22;11828;51.508;18.118;2023-04-20T08:11:43;40.30;20.00
23311;DHT22;11828;51.508;18.118;2023-04-20T08:14:12;39.40;20.30
23311;DHT22;11828;51.508;18.118;2023-04-20T08:16:38;38.50;20.70
23311;DHT22;11828;51.508;18.118;2023-04-20T08:19:06;37.80;21.40
23311;DHT22;11828;51.508;18.118;2023-04-20T08:21:36;37.30;21.60
23311;DHT22;11828;51.508;18.118;2023-04-20T08:24:03;37.00;21.90
23311;DHT22;11828;51.508;18.118;2023-04-20T08:26:31;36.80;22.20
23311;DHT22;11828;51.508;18.118;2023-04-20T08:28:59;36.60;22.40
23311;DHT22;11828;51.508;18.118;2023-04-20T08:31:26;36.50;22.20
23311;DHT22;11828;51.508;18.118;2023-04-20T08:33:53;36.30;22.40
23311;DHT22;11828;51.508;18.118;2023-04-20T08:36:19;36.10;22.50
23311;DHT22;11828;51.508;18.118;2023-04-20T08:38:49;35.80;22.50
23311;DHT22;11828;51.508;18.118;2023-04-20T08:41:23;35.50;22.60
23311;DHT22;11828;51.508;18.118;2023-04-20T08:43:50;35.20;23.00
23311;DHT22;11828;51.508;18.118;2023-04-20T08:46:16;34.80;23.00
23311;DHT22;11828;51.508;18.118;2023-04-20T08:48:45;34.40;23.10
23311;DHT22;11828;51.508;18.118;2023-04-20T08:51:14;34.00;23.40
23311;DHT22;11828;51.508;18.118;2023-04-20T08:53:41;33.70;23.70
23311;DHT22;11828;51.508;18.118;2023-04-20T08:56:08;33.40;24.10
23311;DHT22;11828;51.508;18.118;2023-04-20T08:58:34;33.20;24.60
23311;DHT22;11828;51.508;18.118;2023-04-20T09:01:00;33.10;24.90
23311;DHT22;11828;51.508;18.118;2023-04-20T09:03:52;33.00;25.20
23311;DHT22;11828;51.508;18.118;2023-04-20T09:06:18;32.90;26.00
23311;DHT22;11828;51.508;18.118;2023-04-20T09:08:45;32.80;25.30
23311;DHT22;11828;51.508;18.118;2023-04-20T09:11:24;32.90;25.60
23311;DHT22;11828;51.508;18.118;2023-04-20T09:14:03;33.00;25.60
23311;DHT22;11828;51.508;18.118;2023-04-20T09:16:31;33.00;25.60
23311;DHT22;11828;51.508;18.118;2023-04-20T09:18:59;33.00;25.50
23311;DHT22;11828;51.508;18.118;2023-04-20T09:21:26;33.00;25.70
23311;DHT22;11828;51.508;18.118;2023-04-20T09:24:02;33.00;25.90
23311;DHT22;11828;51.508;18.118;2023-04-20T09:26:33;33.00;25.80
23311;DHT22;11828;51.508;18.118;2023-04-20T09:29:01;32.90;25.80
23311;DHT22;11828;51.508;18.118;2023-04-20T09:31:28;32.80;25.90
23311;DHT22;11828;51.508;18.118;2023-04-20T09:33:59;32.80;26.10
23311;DHT22;11828;51.508;18.118;2023-04-20T09:36:46;32.80;26.20
23311;DHT22;11828;51.508;18.118;2023-04-20T09:39:20;32.80;26.50
23311;DHT22;11828;51.508;18.118;2023-04-20T09:41:49;32.80;26.40
23311;DHT22;11828;51.508;18.118;2023-04-20T09:44:17;32.80;26.60
23311;DHT22;11828;51.508;18.118;2023-04-20T09:46:44;32.70;26.60
23311;DHT22;11828;51.508;18.118;2023-04-20T09:49:12;32.60;26.60
23311;DHT22;11828;51.508;18.118;2023-04-20T09:51:40;32.50;26.70
23311;DHT22;11828;51.508;18.118;2023-04-20T09:54:11;32.40;26.80
23311;DHT22;11828;51.508;18.118;2023-04-20T09:56:38;32.40;27.10
23311;DHT22;11828;51.508;18.118;2023-04-20T09:59:05;32.40;27.20
23311;DHT22;11828;51.508;18.118;2023-04-20T10:01:32;32.50;27.20
23311;DHT22;11828;51.508;18.118;2023-04-20T10:04:04;32.60;27.20
23311;DHT22;11828;51.508;18.118;2023-04-20T10:06:33;32.70;27.20
23311;DHT22;11828;51.508;18.118;2023-04-20T10:09:02;32.70;27.10
23311;DHT22;11828;51.508;18.118;2023-04-20T10:11:37;32.80;27.10
23311;DHT22;11828;51.508;18.118;2023-04-20T10:14:19;32.90;27.10
23311;DHT22;11828;51.508;18.118;2023-04-20T10:17:08;32.80;27.00
23311;DHT22;11828;51.508;18.118;2023-04-20T10:19:44;32.70;26.90
23311;DHT22;11828;51.508;18.118;2023-04-20T10:22:30;32.70;26.80
23311;DHT22;11828;51.508;18.118;2023-04-20T10:25:00;32.60;26.90
23311;DHT22;11828;51.508;18.118;2023-04-20T10:27:33;32.50;26.80
23311;DHT22;11828;51.508;18.118;2023-04-20T10:30:09;32.40;26.90
23311;DHT22;11828;51.508;18.118;2023-04-20T10:32:36;32.30;27.00
23311;DHT22;11828;51.508;18.118;2023-04-20T10:35:06;32.20;27.10
23311;DHT22;11828;51.508;18.118;2023-04-20T10:37:37;32.20;27.20
23311;DHT22;11828;51.508;18.118;2023-04-20T10:40:12;32.20;27.30
23311;DHT22;11828;51.508;18.118;2023-04-20T10:42:42;32.10;27.30
23311;DHT22;11828;51.508;18.118;2023-04-20T10:45:09;32.00;27.10
23311;DHT22;11828;51.508;18.118;2023-04-20T10:47:36;32.00;27.00
23311;DHT22;11828;51.508;18.118;2023-04-20T10:50:13;31.90;27.00
23311;DHT22;11828;51.508;18.118;2023-04-20T10:52:40;31.90;27.30
23311;DHT22;11828;51.508;18.118;2023-04-20T10:55:22;31.90;27.30
23311;DHT22;11828;51.508;18.118;2023-04-20T10:57:49;31.80;27.50
23311;DHT22;11828;51.508;18.118;2023-04-20T11:00:17;31.80;27.40
23311;DHT22;11828;51.508;18.118;2023-04-20T11:02:55;31.80;27.50
23311;DHT22;11828;51.508;18.118;2023-04-20T11:05:24;31.70;27.40
23311;DHT22;11828;51.508;18.118;2023-04-20T11:07:56;31.70;27.30
23311;DHT22;11828;51.508;18.118;2023-04-20T11:10:38;31.70;27.40
23311;DHT22;11828;51.508;18.118;2023-04-20T11:13:05;31.60;27.30
23311;DHT22;11828;51.508;18.118;2023-04-20T11:15:33;31.60;27.70
23311;DHT22;11828;51.508;18.118;2023-04-20T11:18:10;31.60;27.70
23311;DHT22;11828;51.508;18.118;2023-04-20T11:20:48;31.70;27.70
23311;DHT22;11828;51.508;18.118;2023-04-20T11:23:22;32.00;27.40
23311;DHT22;11828;51.508;18.118;2023-04-20T11:25:55;32.30;26.80
23311;DHT22;11828;51.508;18.118;2023-04-20T11:28:22;32.50;26.40
23311;DHT22;11828;51.508;18.118;2023-04-20T11:30:49;32.70;26.30
23311;DHT22;11828;51.508;18.118;2023-04-20T11:33:28;32.80;26.30
23311;DHT22;11828;51.508;18.118;2023-04-20T11:35:59;32.80;25.80
23311;DHT22;11828;51.508;18.118;2023-04-20T11:38:30;33.00;26.10
23311;DHT22;11828;51.508;18.118;2023-04-20T11:40:57;33.20;25.80
23311;DHT22;11828;51.508;18.118;2023-04-20T11:43:30;33.50;25.80
23311;DHT22;11828;51.508;18.118;2023-04-20T11:45:58;33.80;25.60
23311;DHT22;11828;51.508;18.118;2023-04-20T11:48:24;34.20;25.40
23311;DHT22;11828;51.508;18.118;2023-04-20T11:50:52;34.90;24.80
23311;DHT22;11828;51.508;18.118;2023-04-20T11:53:18;35.30;24.30
23311;DHT22;11828;51.508;18.118;2023-04-20T11:55:44;35.40;24.20
23311;DHT22;11828;51.508;18.118;2023-04-20T11:58:10;35.60;24.10
23311;DHT22;11828;51.508;18.118;2023-04-20T12:00:36;35.70;24.00
23311;DHT22;11828;51.508;18.118;2023-04-20T12:03:02;36.10;24.20
23311;DHT22;11828;51.508;18.118;2023-04-20T12:05:29;36.70;24.10
23311;DHT22;11828;51.508;18.118;2023-04-20T12:07:55;37.00;23.40
23311;DHT22;11828;51.508;18.118;2023-04-20T12:10:21;37.70;23.10
23311;DHT22;11828;51.508;18.118;2023-04-20T12:12:47;38.30;22.70
23311;DHT22;11828;51.508;18.118;2023-04-20T12:15:14;38.90;22.20
23311;DHT22;11828;51.508;18.118;2023-04-20T12:17:40;39.50;22.20
23311;DHT22;11828;51.508;18.118;2023-04-20T12:20:07;40.10;21.80
23311;DHT22;11828;51.508;18.118;2023-04-20T12:22:36;40.90;21.30
23311;DHT22;11828;51.508;18.118;2023-04-20T12:25:03;41.20;20.80
23311;DHT22;11828;51.508;18.118;2023-04-20T12:27:30;41.00;20.10
23311;DHT22;11828;51.508;18.118;2023-04-20T12:29:57;40.50;20.30
23311;DHT22;11828;51.508;18.118;2023-04-20T12:32:23;39.80;20.50
23311;DHT22;11828;51.508;18.118;2023-04-20T12:34:49;39.10;20.70
23311;DHT22;11828;51.508;18.118;2023-04-20T12:37:16;38.40;21.00
23311;DHT22;11828;51.508;18.118;2023-04-20T12:39:42;37.90;21.40
23311;DHT22;11828;51.508;18.118;2023-04-20T12:42:08;37.60;22.00
23311;DHT22;11828;51.508;18.118;2023-04-20T12:44:34;37.80;21.80
23311;DHT22;11828;51.508;18.118;2023-04-20T12:47:00;38.10;21.70
23311;DHT22;11828;51.508;18.118;2023-04-20T12:49:26;38.60;21.80
23311;DHT22;11828;51.508;18.118;2023-04-20T12:51:53;39.00;21.40
23311;DHT22;11828;51.508;18.118;2023-04-20T12:54:19;39.50;21.50
23311;DHT22;11828;51.508;18.118;2023-04-20T12:56:45;40.10;21.10
23311;DHT22;11828;51.508;18.118;2023-04-20T12:59:11;40.80;20.90
23311;DHT22;11828;51.508;18.118;2023-04-20T13:01:37;41.50;20.40
23311;DHT22;11828;51.508;18.118;2023-04-20T13:04:03;42.00;20.20
23311;DHT22;11828;51.508;18.118;2023-04-20T13:06:30;42.30;19.80
23311;DHT22;11828;51.508;18.118;2023-04-20T13:08:57;42.80;19.70
23311;DHT22;11828;51.508;18.118;2023-04-20T13:11:24;43.30;19.30
23311;DHT22;11828;51.508;18.118;2023-04-20T13:13:51;43.70;18.90
23311;DHT22;11828;51.508;18.118;2023-04-20T13:16:17;43.70;17.80
23311;DHT22;11828;51.508;18.118;2023-04-20T13:18:43;43.60;17.30
23311;DHT22;11828;51.508;18.118;2023-04-20T13:21:09;43.50;17.50
23311;DHT22;11828;51.508;18.118;2023-04-20T13:23:35;43.60;17.90
23311;DHT22;11828;51.508;18.118;2023-04-20T13:26:02;43.70;17.60
23311;DHT22;11828;51.508;18.118;2023-04-20T13:28:28;43.70;17.50
23311;DHT22;11828;51.508;18.118;2023-04-20T13:30:56;43.70;17.40
23311;DHT22;11828;51.508;18.118;2023-04-20T13:33:22;43.70;17.10
23311;DHT22;11828;51.508;18.118;2023-04-20T13:35:48;43.70;17.10
23311;DHT22;11828;51.508;18.118;2023-04-20T13:38:14;43.40;17.10
23311;DHT22;11828;51.508;18.118;2023-04-20T13:40:41;43.30;17.30
23311;DHT22;11828;51.508;18.118;2023-04-20T13:43:09;43.50;17.20
23311;DHT22;11828;51.508;18.118;2023-04-20T13:45:35;43.30;17.00
23311;DHT22;11828;51.508;18.118;2023-04-20T13:48:01;43.50;17.50
23311;DHT22;11828;51.508;18.118;2023-04-20T13:50:28;43.50;17.30
23311;DHT22;11828;51.508;18.118;2023-04-20T13:52:54;43.80;17.50
23311;DHT22;11828;51.508;18.118;2023-04-20T13:55:20;43.90;17.10
23311;DHT22;11828;51.508;18.118;2023-04-20T13:57:47;43.80;17.00
23311;DHT22;11828;51.508;18.118;2023-04-20T14:00:13;43.10;17.30
23311;DHT22;11828;51.508;18.118;2023-04-20T14:02:40;42.30;18.00
23311;DHT22;11828;51.508;18.118;2023-04-20T14:05:06;41.70;18.30
23311;DHT22;11828;51.508;18.118;2023-04-20T14:07:33;41.00;18.30
23311;DHT22;11828;51.508;18.118;2023-04-20T14:09:59;40.40;19.60
23311;DHT22;11828;51.508;18.118;2023-04-20T14:12:26;40.10;19.30
23311;DHT22;11828;51.508;18.118;2023-04-20T14:14:54;39.70;19.30
23311;DHT22;11828;51.508;18.118;2023-04-20T14:17:22;39.10;19.50
23311;DHT22;11828;51.508;18.118;2023-04-20T14:19:48;38.40;19.90
23311;DHT22;11828;51.508;18.118;2023-04-20T14:22:15;37.70;20.40
23311;DHT22;11828;51.508;18.118;2023-04-20T14:24:41;36.90;20.90
23311;DHT22;11828;51.508;18.118;2023-04-20T14:27:10;36.60;21.40
23311;DHT22;11828;51.508;18.118;2023-04-20T14:29:36;36.60;21.60
23311;DHT22;11828;51.508;18.118;2023-04-20T14:32:02;37.10;21.70
23311;DHT22;11828;51.508;18.118;2023-04-20T14:34:29;37.80;20.90
23311;DHT22;11828;51.508;18.118;2023-04-20T14:36:55;38.70;20.50
23311;DHT22;11828;51.508;18.118;2023-04-20T14:39:21;39.50;20.40
23311;DHT22;11828;51.508;18.118;2023-04-20T14:41:51;40.10;20.00
23311;DHT22;11828;51.508;18.118;2023-04-20T14:44:17;40.70;19.70
23311;DHT22;11828;51.508;18.118;2023-04-20T14:46:43;41.00;19.00
23311;DHT22;11828;51.508;18.118;2023-04-20T14:49:09;40.70;18.80
23311;DHT22;11828;51.508;18.118;2023-04-20T14:51:35;40.10;19.20
23311;DHT22;11828;51.508;18.118;2023-04-20T14:54:01;39.30;19.60
23311;DHT22;11828;51.508;18.118;2023-04-20T14:56:28;38.70;20.30
23311;DHT22;11828;51.508;18.118;2023-04-20T14:58:54;38.00;20.70
23311;DHT22;11828;51.508;18.118;2023-04-20T15:01:21;37.70;21.10
23311;DHT22;11828;51.508;18.118;2023-04-20T15:03:48;37.40;21.20
23311;DHT22;11828;51.508;18.118;2023-04-20T15:06:14;37.50;21.10
23311;DHT22;11828;51.508;18.118;2023-04-20T15:08:41;37.40;20.80
23311;DHT22;11828;51.508;18.118;2023-04-20T15:11:07;37.00;21.00
23311;DHT22;11828;51.508;18.118;2023-04-20T15:13:33;36.60;21.50
23311;DHT22;11828;51.508;18.118;2023-04-20T15:16:00;36.40;22.00